Rhame, North Dakota
Current Conditions -  °F | °C
As of 6:51 AM on Monday 20 Oct 2014 (Local Time) from KBHK Reporting Station
Clear Clear  
Wind Chill: 36°   Ceiling: Unl
Heat Index: 42°   Visibility: 10mi
Dew Point: 35°   Wind: 10mph
Humidity: 76%   Direction: 130°SE
Pressure: 29.98"   Gusts: NA
Location:  46.23°N, 103.66°W
Report Text: KBHK 201251Z AUTO 13009KT 10SM CLR 06/02 A2998 RMK AO2 SLP158 T00560017
Loading
Personal Weather Stations






























Interactive Weather Map
Tropical Storm Tracking
New forecast layout! Learn more

10-Day Weather Forecast

Advertisements
Track Severe Weather on mobile